createdAt,value
2023-02-05T00:00:54.679Z,98.43
2023-02-05T00:02:17.325Z,98.79
2023-02-05T00:03:27.508Z,98.75
2023-02-05T00:04:40.090Z,98.02
2023-02-05T00:05:44.436Z,97.50
2023-02-05T00:06:46.055Z,96.56
2023-02-05T00:07:49.045Z,97.10
2023-02-05T00:08:50.665Z,96.91
2023-02-05T00:09:56.549Z,95.55
2023-02-05T00:11:05.516Z,94.43
2023-02-05T00:12:09.553Z,94.93
2023-02-05T00:13:11.149Z,94.34
2023-02-05T00:14:15.041Z,95.03
2023-02-05T00:15:16.583Z,95.18
2023-02-05T00:16:22.937Z,93.54
2023-02-05T00:17:24.621Z,91.92
2023-02-05T00:18:27.239Z,90.91
2023-02-05T00:19:28.882Z,90.32
2023-02-05T00:20:31.466Z,89.74
2023-02-05T00:21:35.459Z,88.89
2023-02-05T00:22:37.962Z,88.37
2023-02-05T00:23:40.025Z,88.22
2023-02-05T00:24:42.711Z,88.89
2023-02-05T00:25:44.504Z,89.47
2023-02-05T00:26:46.993Z,89.32
2023-02-05T00:27:48.651Z,89.38
2023-02-05T00:28:51.502Z,88.89
2023-02-05T00:29:53.114Z,88.11
2023-02-05T00:30:56.522Z,89.40
2023-02-05T00:31:58.086Z,91.38
2023-02-05T00:33:00.625Z,92.66
2023-02-05T00:34:02.474Z,94.89
2023-02-05T00:35:05.278Z,95.31
2023-02-05T00:36:08.205Z,95.42
2023-02-05T00:37:13.314Z,94.25
2023-02-05T00:38:15.022Z,92.15
2023-02-05T00:39:19.061Z,91.21
2023-02-05T00:40:20.876Z,90.75
2023-02-05T00:41:23.395Z,89.91
2023-02-05T00:42:25.018Z,89.60
2023-02-05T00:43:27.526Z,89.18
2023-02-05T00:44:29.332Z,88.70
2023-02-05T00:45:35.575Z,88.33
2023-02-05T00:46:37.830Z,89.21
2023-02-05T00:47:40.612Z,91.44
2023-02-05T00:48:43.281Z,95.87
2023-02-05T00:49:45.897Z,97.19
2023-02-05T00:50:48.947Z,97.37
2023-02-05T00:51:51.461Z,96.84
2023-02-05T00:52:55.140Z,96.51
2023-02-05T00:53:57.737Z,95.73
2023-02-05T00:54:59.582Z,95.11
2023-02-05T00:56:02.110Z,94.36
2023-02-05T00:57:04.245Z,93.28
2023-02-05T00:58:07.022Z,93.24
2023-02-05T00:59:08.657Z,92.05
2023-02-05T01:00:12.296Z,90.88
2023-02-05T01:01:14.330Z,90.67
2023-02-05T01:02:23.465Z,90.49
2023-02-05T01:03:25.089Z,89.92
2023-02-05T01:04:27.620Z,89.31
2023-02-05T01:05:30.689Z,88.66
2023-02-05T01:06:33.497Z,88.45
2023-02-05T01:07:35.128Z,87.78
2023-02-05T01:08:40.037Z,87.38
2023-02-05T01:09:41.547Z,86.86
2023-02-05T01:10:45.672Z,86.58
2023-02-05T01:11:47.208Z,86.31
2023-02-05T01:12:50.233Z,86.16
2023-02-05T01:13:51.793Z,85.91
2023-02-05T01:14:54.285Z,87.38
2023-02-05T01:15:56.136Z,88.04
2023-02-05T01:16:58.913Z,88.47
2023-02-05T01:18:01.147Z,89.03
2023-02-05T01:19:03.770Z,88.36
2023-02-05T01:20:07.651Z,87.36
2023-02-05T01:21:10.250Z,86.77
2023-02-05T01:22:11.907Z,86.73
2023-02-05T01:23:14.530Z,86.89
2023-02-05T01:24:17.405Z,87.19
2023-02-05T01:25:20.143Z,87.19
2023-02-05T01:26:21.791Z,86.99
2023-02-05T01:27:25.538Z,86.95
2023-02-05T01:28:27.483Z,87.24
2023-02-05T01:29:30.290Z,87.15
2023-02-05T01:30:34.210Z,89.22
2023-02-05T01:31:43.934Z,92.38
2023-02-05T01:32:45.621Z,94.59
2023-02-05T01:33:49.039Z,96.68
2023-02-05T01:34:50.809Z,98.37
2023-02-05T01:35:53.269Z,100.00
2023-02-05T01:36:54.878Z,100.00
2023-02-05T01:37:57.402Z,100.00
2023-02-05T01:38:58.966Z,100.00
2023-02-05T01:40:02.851Z,100.00
2023-02-05T01:41:04.571Z,100.00
2023-02-05T01:42:19.574Z,99.11
2023-02-05T01:43:21.260Z,97.63
2023-02-05T01:44:25.719Z,97.54
2023-02-05T01:45:50.774Z,96.90
2023-02-05T01:46:54.899Z,96.80
2023-02-05T01:47:58.215Z,96.49
2023-02-05T01:49:06.101Z,95.31
2023-02-05T01:50:10.132Z,93.61
2023-02-05T01:51:17.325Z,92.37
2023-02-05T01:52:22.328Z,91.58
2023-02-05T01:53:27.080Z,90.92
2023-02-05T01:54:32.422Z,90.89
2023-02-05T01:55:41.013Z,90.81
2023-02-05T01:56:47.974Z,90.41
2023-02-05T01:57:53.151Z,90.08
2023-02-05T01:58:58.857Z,89.83
2023-02-05T02:00:00.899Z,88.95
2023-02-05T02:01:03.559Z,88.70
2023-02-05T02:02:06.508Z,88.88
2023-02-05T02:03:11.465Z,88.50
2023-02-05T02:04:20.284Z,88.06
2023-02-05T02:05:22.159Z,87.98
2023-02-05T02:06:24.910Z,88.04
2023-02-05T02:07:27.247Z,87.93
2023-02-05T02:08:31.625Z,88.57
2023-02-05T02:09:34.144Z,88.58
2023-02-05T02:10:40.283Z,88.65
2023-02-05T02:11:43.658Z,88.60
2023-02-05T02:12:48.857Z,88.70
2023-02-05T02:13:55.193Z,88.58
2023-02-05T02:15:03.510Z,88.23
2023-02-05T02:16:07.635Z,88.64
2023-02-05T02:17:11.214Z,88.61
2023-02-05T02:18:28.066Z,87.99
2023-02-05T02:19:34.672Z,87.34
2023-02-05T02:20:41.059Z,87.24
2023-02-05T02:22:10.837Z,86.67
2023-02-05T02:23:22.590Z,86.57
2023-02-05T02:24:49.783Z,87.16
2023-02-05T02:26:16.612Z,87.13
2023-02-05T02:27:37.362Z,86.86
2023-02-05T02:28:45.474Z,87.07
2023-02-05T02:29:53.560Z,87.29
2023-02-05T02:31:02.716Z,87.77
2023-02-05T02:32:14.309Z,87.38
2023-02-05T02:33:28.454Z,87.09
2023-02-05T02:34:36.113Z,86.67
2023-02-05T02:35:47.878Z,86.48
2023-02-05T02:37:00.092Z,86.06
2023-02-05T02:38:09.587Z,86.27
2023-02-05T02:39:20.256Z,87.20
2023-02-05T02:40:27.714Z,87.67
2023-02-05T02:41:37.613Z,87.55
2023-02-05T02:42:45.965Z,87.25
2023-02-05T02:43:53.623Z,86.79
2023-02-05T02:44:58.964Z,87.05
2023-02-05T02:46:05.126Z,86.81
2023-02-05T02:47:13.959Z,86.89
2023-02-05T02:48:19.252Z,87.13
2023-02-05T02:49:26.694Z,87.46
2023-02-05T02:50:35.989Z,87.59
2023-02-05T02:51:42.197Z,87.45
2023-02-05T02:52:48.365Z,88.03
2023-02-05T02:53:55.779Z,89.77
2023-02-05T02:55:05.705Z,90.04
2023-02-05T02:56:11.214Z,89.98
2023-02-05T02:57:17.403Z,89.91
2023-02-05T02:58:25.387Z,90.13
2023-02-05T02:59:31.366Z,90.27
2023-02-05T03:00:34.215Z,89.47
2023-02-05T03:01:42.549Z,89.10
2023-02-05T03:02:48.013Z,89.36
2023-02-05T03:03:54.686Z,89.26
2023-02-05T03:05:01.626Z,89.32
2023-02-05T03:06:08.344Z,90.99
2023-02-05T03:07:12.428Z,91.43
2023-02-05T03:08:20.278Z,93.39
2023-02-05T03:09:30.228Z,92.96
2023-02-05T03:10:41.049Z,92.51
2023-02-05T03:11:42.514Z,91.10
2023-02-05T03:12:45.183Z,90.74
2023-02-05T03:13:48.917Z,89.86
2023-02-05T03:14:52.839Z,88.92
2023-02-05T03:15:54.528Z,88.56
2023-02-05T03:16:57.469Z,88.80
2023-02-05T03:17:59.487Z,89.01
2023-02-05T03:19:05.486Z,89.00
2023-02-05T03:20:11.722Z,88.80
2023-02-05T03:21:18.061Z,88.16
2023-02-05T03:22:19.584Z,88.99
2023-02-05T03:23:22.876Z,89.33
2023-02-05T03:24:25.104Z,90.59
2023-02-05T03:25:30.105Z,91.72
2023-02-05T03:26:35.089Z,93.52
2023-02-05T03:27:38.482Z,96.50
2023-02-05T03:28:40.428Z,99.24
2023-02-05T03:29:45.770Z,100.00
2023-02-05T03:30:58.175Z,100.00
2023-02-05T03:32:12.111Z,100.00
2023-02-05T03:33:31.784Z,100.00
2023-02-05T03:34:46.704Z,98.53
2023-02-05T03:35:58.556Z,96.64
2023-02-05T03:37:11.427Z,94.86
2023-02-05T03:38:28.019Z,93.39
2023-02-05T03:39:40.903Z,92.51
2023-02-05T03:40:48.412Z,92.12
2023-02-05T03:41:58.727Z,91.19
2023-02-05T03:43:10.003Z,90.83
2023-02-05T03:44:21.921Z,91.80
2023-02-05T03:45:33.800Z,91.33
2023-02-05T03:46:47.451Z,90.15
2023-02-05T03:48:04.318Z,89.83
2023-02-05T03:49:16.146Z,92.51
2023-02-05T03:50:29.609Z,93.53
2023-02-05T03:51:39.711Z,94.79
2023-02-05T03:52:45.763Z,94.98
2023-02-05T03:54:01.246Z,94.51
2023-02-05T03:55:08.624Z,93.13
2023-02-05T03:56:18.323Z,91.88
2023-02-05T03:57:24.786Z,90.73
2023-02-05T03:58:30.495Z,90.04
2023-02-05T03:59:35.809Z,89.71
2023-02-05T04:00:41.036Z,89.27
2023-02-05T04:01:43.139Z,88.70
2023-02-05T04:02:49.097Z,88.75
2023-02-05T04:03:50.937Z,88.04
2023-02-05T04:04:53.618Z,87.86
2023-02-05T04:05:56.285Z,87.99
2023-02-05T04:06:58.892Z,87.16
2023-02-05T04:08:00.476Z,86.87
2023-02-05T04:09:03.172Z,86.52
2023-02-05T04:10:05.027Z,86.75
2023-02-05T04:11:10.153Z,86.83
2023-02-05T04:12:11.664Z,86.99
2023-02-05T04:13:14.196Z,87.10
2023-02-05T04:14:15.753Z,87.21
2023-02-05T04:15:18.550Z,87.01
2023-02-05T04:16:21.769Z,87.29
2023-02-05T04:17:24.316Z,87.71
2023-02-05T04:18:26.291Z,88.48
2023-02-05T04:19:29.144Z,89.50
2023-02-05T04:20:30.622Z,90.61
2023-02-05T04:21:34.781Z,91.15
2023-02-05T04:22:36.370Z,91.49
2023-02-05T04:23:38.989Z,91.03
2023-02-05T04:24:40.565Z,92.35
2023-02-05T04:25:43.605Z,92.05
2023-02-05T04:26:45.452Z,94.36
2023-02-05T04:27:48.222Z,97.61
2023-02-05T04:28:49.882Z,99.15
2023-02-05T04:29:52.403Z,100.00
2023-02-05T04:30:53.940Z,100.00
2023-02-05T04:31:58.220Z,100.00
2023-02-05T04:33:00.133Z,100.00
2023-02-05T04:34:02.724Z,100.00
2023-02-05T04:35:04.985Z,97.89
2023-02-05T04:36:08.622Z,95.78
2023-02-05T04:37:11.150Z,97.30
2023-02-05T04:38:16.172Z,97.52
2023-02-05T04:39:18.692Z,97.56
2023-02-05T04:40:20.334Z,98.58
2023-02-05T04:41:23.053Z,98.54
2023-02-05T04:42:24.609Z,98.13
2023-02-05T04:43:27.294Z,96.81
2023-02-05T04:44:29.072Z,96.83
2023-02-05T04:45:33.608Z,95.87
2023-02-05T04:46:35.295Z,95.20
2023-02-05T04:47:39.475Z,94.60
2023-02-05T04:48:42.685Z,94.09
2023-02-05T04:49:45.203Z,93.04
2023-02-05T04:50:47.246Z,93.63
2023-02-05T04:51:50.028Z,94.39
2023-02-05T04:52:54.567Z,96.87
2023-02-05T04:53:57.351Z,96.33
2023-02-05T04:54:58.967Z,96.94
2023-02-05T04:56:12.273Z,98.76
2023-02-05T04:57:19.406Z,98.64
2023-02-05T04:58:22.335Z,97.25
2023-02-05T04:59:24.123Z,96.55
2023-02-05T05:00:27.562Z,95.24
2023-02-05T05:01:29.090Z,94.54
2023-02-05T05:02:33.780Z,95.74
2023-02-05T05:03:39.381Z,98.00
2023-02-05T05:04:43.505Z,96.92
2023-02-05T05:05:47.143Z,96.00
2023-02-05T05:06:51.703Z,95.07
2023-02-05T05:07:53.571Z,93.93
2023-02-05T05:08:58.219Z,93.74
2023-02-05T05:09:59.755Z,93.07
2023-02-05T05:11:07.715Z,91.56
2023-02-05T05:12:09.205Z,90.79
2023-02-05T05:13:11.783Z,89.48
2023-02-05T05:14:14.996Z,88.86
2023-02-05T05:15:19.635Z,88.09
2023-02-05T05:16:21.232Z,87.50
2023-02-05T05:17:23.729Z,87.81
2023-02-05T05:18:25.239Z,88.66
2023-02-05T05:19:30.664Z,88.84
2023-02-05T05:20:32.333Z,88.24
2023-02-05T05:21:34.837Z,87.97
2023-02-05T05:22:38.222Z,87.61
2023-02-05T05:23:41.012Z,87.37
2023-02-05T05:24:42.766Z,87.21
2023-02-05T05:25:46.494Z,86.93
2023-02-05T05:26:48.028Z,86.92
2023-02-05T05:27:54.935Z,86.39
2023-02-05T05:29:02.871Z,86.14
2023-02-05T05:30:06.097Z,86.33
2023-02-05T05:31:09.913Z,86.38
2023-02-05T05:32:12.441Z,86.08
2023-02-05T05:33:16.144Z,86.62
2023-02-05T05:34:18.866Z,86.08
2023-02-05T05:35:22.054Z,86.48
2023-02-05T05:36:24.588Z,85.80
2023-02-05T05:37:26.258Z,85.94
2023-02-05T05:38:32.608Z,85.48
2023-02-05T05:39:53.100Z,85.64
2023-02-05T05:41:13.532Z,86.39
2023-02-05T05:42:40.009Z,86.96
2023-02-05T05:43:48.541Z,86.65
2023-02-05T05:44:52.101Z,86.43
2023-02-05T05:45:58.065Z,86.07
2023-02-05T05:46:59.604Z,86.93
2023-02-05T05:48:03.322Z,89.38
2023-02-05T05:49:04.875Z,91.24
2023-02-05T05:50:08.148Z,91.30
2023-02-05T05:51:11.014Z,91.47
2023-02-05T05:52:13.561Z,91.37
2023-02-05T05:53:15.614Z,92.05
2023-02-05T05:54:22.682Z,92.59
2023-02-05T05:55:24.190Z,90.96
2023-02-05T05:56:28.223Z,90.42
2023-02-05T05:57:31.898Z,89.67
2023-02-05T05:58:34.679Z,88.52
2023-02-05T05:59:37.002Z,88.10
2023-02-05T06:00:41.555Z,87.37
2023-02-05T06:01:48.310Z,87.47
2023-02-05T06:02:51.995Z,87.15
2023-02-05T06:03:53.635Z,86.73
2023-02-05T06:04:56.469Z,86.64
2023-02-05T06:06:00.468Z,86.78
2023-02-05T06:07:06.656Z,88.29
2023-02-05T06:08:08.168Z,89.20
2023-02-05T06:09:10.886Z,90.33
2023-02-05T06:10:12.753Z,91.31
2023-02-05T06:11:15.477Z,92.61
2023-02-05T06:12:17.234Z,92.59
2023-02-05T06:13:19.762Z,91.76
2023-02-05T06:14:21.386Z,90.70
2023-02-05T06:15:24.252Z,89.88
2023-02-05T06:16:25.928Z,88.42
2023-02-05T06:17:29.185Z,87.80
2023-02-05T06:18:41.356Z,87.19
2023-02-05T06:19:45.474Z,86.16
2023-02-05T06:20:47.279Z,86.02
2023-02-05T06:21:49.956Z,85.83
2023-02-05T06:22:52.873Z,85.63
2023-02-05T06:23:55.512Z,86.17
2023-02-05T06:24:58.103Z,86.18
2023-02-05T06:26:00.582Z,86.79
2023-02-05T06:27:02.160Z,86.20
2023-02-05T06:28:04.797Z,86.06
2023-02-05T06:29:08.969Z,86.48
2023-02-05T06:30:18.634Z,86.72
2023-02-05T06:31:20.288Z,86.81
2023-02-05T06:32:26.811Z,86.43
2023-02-05T06:33:28.500Z,86.14
2023-02-05T06:34:31.213Z,85.89
2023-02-05T06:35:33.504Z,85.55
2023-02-05T06:36:36.321Z,85.14
2023-02-05T06:37:47.158Z,84.91
2023-02-05T06:38:53.803Z,84.83
2023-02-05T06:39:55.608Z,84.62
2023-02-05T06:40:58.137Z,84.72
2023-02-05T06:41:59.692Z,84.57
2023-02-05T06:43:03.604Z,84.49
2023-02-05T06:44:08.191Z,84.74
2023-02-05T06:45:12.802Z,84.89
2023-02-05T06:46:18.449Z,84.89
2023-02-05T06:47:22.445Z,84.94
2023-02-05T06:48:37.094Z,84.77
2023-02-05T06:49:38.843Z,85.38
2023-02-05T06:50:43.081Z,85.09
2023-02-05T06:51:47.678Z,84.87
2023-02-05T06:52:51.316Z,85.29
2023-02-05T06:53:57.429Z,85.07
2023-02-05T06:54:59.977Z,85.04
2023-02-05T06:56:08.313Z,85.50
2023-02-05T06:57:10.798Z,85.55
2023-02-05T06:58:12.530Z,85.06
2023-02-05T06:59:18.662Z,84.84
2023-02-05T07:00:23.543Z,84.48
2023-02-05T07:01:30.721Z,84.13
2023-02-05T07:02:34.998Z,83.94
2023-02-05T07:03:41.863Z,84.39
2023-02-05T07:04:43.802Z,84.15
2023-02-05T07:05:47.877Z,84.24
2023-02-05T07:06:49.583Z,84.24
2023-02-05T07:07:57.085Z,84.29
2023-02-05T07:09:01.761Z,83.99
2023-02-05T07:10:05.363Z,84.34
2023-02-05T07:11:08.422Z,84.17
2023-02-05T07:12:21.117Z,85.53
2023-02-05T07:13:23.728Z,85.44
2023-02-05T07:14:30.061Z,85.86
2023-02-05T07:15:40.419Z,86.21
2023-02-05T07:16:42.293Z,85.53
2023-02-05T07:17:47.341Z,85.45
2023-02-05T07:18:49.115Z,85.49
2023-02-05T07:19:59.845Z,86.83
2023-02-05T07:21:04.796Z,87.08
2023-02-05T07:22:07.290Z,86.39
2023-02-05T07:23:09.090Z,86.17
2023-02-05T07:24:13.235Z,86.53
2023-02-05T07:25:15.272Z,86.05
2023-02-05T07:26:19.136Z,85.64
2023-02-05T07:27:20.972Z,85.61
2023-02-05T07:28:23.553Z,85.22
2023-02-05T07:29:25.217Z,85.58
2023-02-05T07:30:30.761Z,85.09
2023-02-05T07:31:34.503Z,85.04
2023-02-05T07:32:37.175Z,84.74
2023-02-05T07:33:38.812Z,84.83
2023-02-05T07:34:45.374Z,84.23
2023-02-05T07:35:51.228Z,86.29
2023-02-05T07:36:59.199Z,89.34
2023-02-05T07:38:10.986Z,91.20
2023-02-05T07:39:14.074Z,92.96
2023-02-05T07:40:17.194Z,94.53
2023-02-05T07:41:18.803Z,94.53
2023-02-05T07:42:21.484Z,93.32
2023-02-05T07:43:23.499Z,92.77
2023-02-05T07:44:26.893Z,92.03
2023-02-05T07:45:30.562Z,92.39
2023-02-05T07:46:35.295Z,93.72
2023-02-05T07:47:40.979Z,93.28
2023-02-05T07:48:48.364Z,93.53
2023-02-05T07:49:52.154Z,93.96
2023-02-05T07:50:58.798Z,94.09
2023-02-05T07:52:08.276Z,94.06
2023-02-05T07:53:14.340Z,93.61
2023-02-05T07:54:20.139Z,94.80
2023-02-05T07:55:29.761Z,94.07
2023-02-05T07:56:31.594Z,93.41
2023-02-05T07:57:34.123Z,92.30
2023-02-05T07:58:38.270Z,91.48
2023-02-05T07:59:48.816Z,90.47
2023-02-05T08:00:50.506Z,90.70
2023-02-05T08:01:53.413Z,91.52
2023-02-05T08:02:54.978Z,92.61
2023-02-05T08:04:00.409Z,94.21
2023-02-05T08:05:06.361Z,94.59
2023-02-05T08:06:20.175Z,94.52
2023-02-05T08:07:22.297Z,94.03
2023-02-05T08:08:27.443Z,95.15
2023-02-05T08:09:30.455Z,95.41
2023-02-05T08:10:35.228Z,94.46
2023-02-05T08:11:39.405Z,95.35
2023-02-05T08:12:48.978Z,95.78
2023-02-05T08:13:53.474Z,95.94
2023-02-05T08:14:56.327Z,95.56
2023-02-05T08:16:01.235Z,95.73
2023-02-05T08:17:06.055Z,95.52
2023-02-05T08:18:11.516Z,97.02
2023-02-05T08:19:15.790Z,97.45
2023-02-05T08:20:32.281Z,97.30
2023-02-05T08:21:35.898Z,96.54
2023-02-05T08:22:45.743Z,95.97
2023-02-05T08:23:47.343Z,97.09
2023-02-05T08:24:57.951Z,98.10
2023-02-05T08:26:03.452Z,98.46
2023-02-05T08:27:18.067Z,98.28
2023-02-05T08:28:22.002Z,98.05
2023-02-05T08:29:26.697Z,96.62
2023-02-05T08:30:38.534Z,96.12
2023-02-05T08:31:45.478Z,94.45
2023-02-05T08:32:52.510Z,93.21
2023-02-05T08:34:03.566Z,92.38
2023-02-05T08:35:33.543Z,91.61
2023-02-05T08:36:47.847Z,91.18
2023-02-05T08:38:22.930Z,91.93
2023-02-05T08:39:35.632Z,93.30
2023-02-05T08:40:38.991Z,93.50
2023-02-05T08:42:02.975Z,92.85
2023-02-05T08:43:07.027Z,92.86
2023-02-05T08:44:09.933Z,92.47
2023-02-05T08:45:28.461Z,92.48
2023-02-05T08:46:49.647Z,92.17
2023-02-05T08:48:34.913Z,90.94
2023-02-05T08:49:38.270Z,91.28
2023-02-05T08:50:46.829Z,90.85
2023-02-05T08:52:00.261Z,91.10
2023-02-05T08:53:02.871Z,91.35
2023-02-05T08:54:19.678Z,91.04
2023-02-05T08:55:23.806Z,91.87
2023-02-05T08:56:30.949Z,93.62
2023-02-05T08:57:35.278Z,94.62
2023-02-05T08:58:46.044Z,95.30
2023-02-05T08:59:49.422Z,95.15
2023-02-05T09:00:55.211Z,94.67
2023-02-05T09:01:58.052Z,92.97
2023-02-05T09:03:01.476Z,93.07
2023-02-05T09:04:06.930Z,92.38
2023-02-05T09:05:09.824Z,90.85
2023-02-05T09:06:21.433Z,89.79
2023-02-05T09:07:36.727Z,89.01
2023-02-05T09:08:40.120Z,88.99
2023-02-05T09:10:12.050Z,87.89
2023-02-05T09:11:14.702Z,87.21
2023-02-05T09:12:20.661Z,87.06
2023-02-05T09:13:23.201Z,86.79
2023-02-05T09:15:00.673Z,86.82
2023-02-05T09:16:14.984Z,85.63
2023-02-05T09:17:17.998Z,86.85
2023-02-05T09:18:25.505Z,88.42
2023-02-05T09:19:27.988Z,87.56
2023-02-05T09:20:49.339Z,87.76
2023-02-05T09:21:53.331Z,89.55
2023-02-05T09:22:56.735Z,89.59
2023-02-05T09:23:58.645Z,90.13
2023-02-05T09:25:02.441Z,90.91
2023-02-05T09:26:05.350Z,91.04
2023-02-05T09:27:06.880Z,91.94
2023-02-05T09:28:13.566Z,90.99
2023-02-05T09:29:15.068Z,91.36
2023-02-05T09:30:18.740Z,91.59
2023-02-05T09:31:21.179Z,91.82
2023-02-05T09:32:24.657Z,92.33
2023-02-05T09:33:26.111Z,91.21
2023-02-05T09:34:29.865Z,90.70
2023-02-05T09:35:33.306Z,90.80
2023-02-05T09:36:37.671Z,90.74
2023-02-05T09:37:40.475Z,90.29
2023-02-05T09:39:02.019Z,90.35
2023-02-05T09:40:21.399Z,89.95
2023-02-05T09:41:33.008Z,89.10
2023-02-05T09:42:44.544Z,88.45
2023-02-05T09:43:55.134Z,90.28
2023-02-05T09:45:08.238Z,91.21
2023-02-05T09:46:18.171Z,91.02
2023-02-05T09:47:27.540Z,90.91
2023-02-05T09:48:43.841Z,91.02
2023-02-05T09:49:54.714Z,89.65
2023-02-05T09:50:58.127Z,89.96
2023-02-05T09:52:08.797Z,89.65
2023-02-05T09:53:18.116Z,88.54
2023-02-05T09:54:30.168Z,88.94
2023-02-05T09:55:35.996Z,89.04
2023-02-05T09:56:40.080Z,89.85
2023-02-05T09:57:43.122Z,89.50
2023-02-05T09:58:49.552Z,89.66
2023-02-05T09:59:51.967Z,89.64
2023-02-05T10:01:00.635Z,90.32
2023-02-05T10:02:23.151Z,89.96
2023-02-05T10:03:31.175Z,90.73
2023-02-05T10:04:33.674Z,90.80
2023-02-05T10:05:41.034Z,91.31
2023-02-05T10:07:06.228Z,92.24
2023-02-05T10:08:17.794Z,91.48
2023-02-05T10:09:35.287Z,91.67
2023-02-05T10:10:44.398Z,91.64
2023-02-05T10:11:51.541Z,90.45
2023-02-05T10:13:09.986Z,90.25
2023-02-05T10:14:39.502Z,89.76
2023-02-05T10:15:58.238Z,89.07
2023-02-05T10:17:24.713Z,89.96
2023-02-05T10:18:35.263Z,88.85
2023-02-05T10:19:52.170Z,86.95
2023-02-05T10:21:02.540Z,86.67
2023-02-05T10:22:16.217Z,87.32
2023-02-05T10:23:31.709Z,86.70
2023-02-05T10:24:48.221Z,86.04
2023-02-05T10:26:08.319Z,85.84
2023-02-05T10:27:18.912Z,85.04
2023-02-05T10:28:51.264Z,84.87
2023-02-05T10:30:04.076Z,85.05
2023-02-05T10:31:13.646Z,84.61
2023-02-05T10:32:22.838Z,83.28
2023-02-05T10:33:41.816Z,84.69
2023-02-05T10:34:54.017Z,84.94
2023-02-05T10:35:59.965Z,85.21
2023-02-05T10:38:19.103Z,84.18
2023-02-05T10:39:23.123Z,84.15
2023-02-05T10:40:29.844Z,84.35
2023-02-05T10:41:39.661Z,84.24
2023-02-05T10:42:48.527Z,83.57
2023-02-05T10:44:01.188Z,82.64
2023-02-05T10:45:18.129Z,84.95
2023-02-05T10:46:20.786Z,84.08
2023-02-05T10:47:41.366Z,84.93
2023-02-05T10:48:58.374Z,84.76
2023-02-05T10:50:09.957Z,85.43
2023-02-05T10:51:16.171Z,84.78
2023-02-05T10:52:18.097Z,84.53
2023-02-05T10:53:26.175Z,83.77
2023-02-05T10:54:30.998Z,82.07
2023-02-05T10:55:38.742Z,82.17
2023-02-05T10:56:51.130Z,82.62
2023-02-05T10:57:56.623Z,83.57
2023-02-05T10:59:04.593Z,82.27
2023-02-05T11:00:16.476Z,82.82
2023-02-05T11:01:32.647Z,82.30
2023-02-05T11:02:54.197Z,83.40
2023-02-05T11:04:07.726Z,83.19
2023-02-05T11:05:53.563Z,85.33
2023-02-05T11:07:01.908Z,85.13
2023-02-05T11:08:11.377Z,85.26
2023-02-05T11:09:35.772Z,84.55
2023-02-05T11:10:51.778Z,83.02
2023-02-05T11:11:59.279Z,83.79
2023-02-05T11:13:18.237Z,84.14
2023-02-05T11:14:25.361Z,83.94
2023-02-05T11:16:55.891Z,82.90
2023-02-05T11:18:29.234Z,81.70
2023-02-05T11:19:40.261Z,81.36
2023-02-05T11:21:00.184Z,81.48
2023-02-05T11:22:17.117Z,81.34
2023-02-05T11:23:38.510Z,80.62
2023-02-05T11:24:41.364Z,81.59
2023-02-05T11:27:16.548Z,83.92
2023-02-05T11:28:27.332Z,83.56
2023-02-05T11:29:30.109Z,82.21
2023-02-05T11:30:52.648Z,83.25
2023-02-05T11:31:55.845Z,83.06
2023-02-05T11:32:58.980Z,81.44
2023-02-05T11:34:12.570Z,79.73
2023-02-05T11:35:21.106Z,79.67
2023-02-05T11:36:25.980Z,78.69
2023-02-05T11:37:27.629Z,80.48
2023-02-05T11:38:44.790Z,80.33
2023-02-05T11:39:56.555Z,78.79
2023-02-05T11:41:01.650Z,79.63
2023-02-05T11:42:11.366Z,79.78
2023-02-05T11:43:21.728Z,79.76
2023-02-05T11:44:29.867Z,77.76
2023-02-05T11:45:35.303Z,77.02
2023-02-05T11:46:45.198Z,78.80
2023-02-05T11:47:47.900Z,78.79
2023-02-05T11:48:59.359Z,78.30
2023-02-05T11:50:01.853Z,79.18
2023-02-05T11:51:08.308Z,82.03
2023-02-05T11:52:15.186Z,82.88
2023-02-05T11:53:21.883Z,83.96
2023-02-05T11:54:29.754Z,83.78
2023-02-05T11:55:36.127Z,83.68
2023-02-05T11:56:40.593Z,82.58
2023-02-05T11:57:43.892Z,83.11
2023-02-05T11:58:59.315Z,81.92
2023-02-05T12:00:19.118Z,82.48
2023-02-05T12:01:25.682Z,81.50
2023-02-05T12:02:31.313Z,81.50
2023-02-05T12:03:35.202Z,81.32
2023-02-05T12:04:46.543Z,80.68
2023-02-05T12:05:53.878Z,81.57
2023-02-05T12:07:01.223Z,80.95
2023-02-05T12:08:09.275Z,81.94
2023-02-05T12:09:15.666Z,82.05
2023-02-05T12:10:19.068Z,80.57
2023-02-05T12:11:56.154Z,78.12
2023-02-05T12:13:08.952Z,76.68
2023-02-05T12:14:20.737Z,78.08
2023-02-05T12:15:26.600Z,77.36
2023-02-05T12:16:46.415Z,75.73
2023-02-05T12:17:55.619Z,75.79
2023-02-05T12:19:07.749Z,76.19
2023-02-05T12:20:22.648Z,77.53
2023-02-05T12:21:38.557Z,77.47
2023-02-05T12:23:05.633Z,77.39
2023-02-05T12:24:39.617Z,76.84
2023-02-05T12:25:53.700Z,77.19
2023-02-05T12:27:07.234Z,76.37
2023-02-05T12:28:24.299Z,76.49
2023-02-05T12:29:46.816Z,77.07
2023-02-05T12:31:00.147Z,77.72
2023-02-05T12:32:11.147Z,76.74
2023-02-05T12:33:29.999Z,76.89
2023-02-05T12:34:43.189Z,76.91
2023-02-05T12:36:01.104Z,76.20
2023-02-05T12:37:29.007Z,75.45
2023-02-05T12:38:48.556Z,77.03
2023-02-05T12:39:54.287Z,78.21
2023-02-05T12:41:11.784Z,77.96
2023-02-05T12:42:25.390Z,77.08
2023-02-05T12:43:38.199Z,77.60
2023-02-05T12:44:54.273Z,79.56
2023-02-05T12:46:04.484Z,81.38
2023-02-05T12:47:20.628Z,82.49
2023-02-05T12:48:52.899Z,81.78
2023-02-05T12:50:19.411Z,79.95
2023-02-05T12:51:51.414Z,82.59
2023-02-05T12:53:08.174Z,82.59
2023-02-05T12:54:28.707Z,82.53
2023-02-05T12:55:45.095Z,82.35
2023-02-05T12:56:56.910Z,81.79
2023-02-05T12:58:04.792Z,82.03
2023-02-05T12:59:14.465Z,81.06
2023-02-05T13:00:29.380Z,81.19
2023-02-05T13:01:41.200Z,80.58
2023-02-05T13:02:54.157Z,79.05
2023-02-05T13:04:01.720Z,77.47
2023-02-05T13:05:16.028Z,77.16
2023-02-05T13:06:22.620Z,78.60
2023-02-05T13:07:34.072Z,80.60
2023-02-05T13:08:42.703Z,80.61
2023-02-05T13:09:50.286Z,80.02
2023-02-05T13:10:57.537Z,80.72
2023-02-05T13:12:05.009Z,79.30
2023-02-05T13:13:15.040Z,78.84
2023-02-05T13:14:22.533Z,79.70
2023-02-05T13:15:28.179Z,79.89
2023-02-05T13:16:37.790Z,80.06
2023-02-05T13:17:44.856Z,80.54
2023-02-05T13:19:02.994Z,79.61
2023-02-05T13:20:20.824Z,80.04
2023-02-05T13:21:41.226Z,80.38
2023-02-05T13:23:11.485Z,81.40
2023-02-05T13:24:44.794Z,81.58
2023-02-05T13:26:08.100Z,80.95
2023-02-05T13:27:40.386Z,79.26
2023-02-05T13:28:45.376Z,79.24
2023-02-05T13:29:52.852Z,78.78
2023-02-05T13:30:58.150Z,79.93
2023-02-05T13:32:15.346Z,79.51
2023-02-05T13:33:17.863Z,79.79
2023-02-05T13:34:26.093Z,79.18
2023-02-05T13:35:36.916Z,80.81
2023-02-05T13:37:13.284Z,80.17
2023-02-05T13:38:29.406Z,81.44
2023-02-05T13:39:47.512Z,80.33
2023-02-05T13:41:26.097Z,79.91
2023-02-05T13:42:45.124Z,79.97
2023-02-05T13:44:24.071Z,80.98
2023-02-05T13:45:58.524Z,81.56
2023-02-05T13:47:34.116Z,82.05
2023-02-05T13:49:03.357Z,83.34
2023-02-05T13:50:29.148Z,83.69
2023-02-05T13:51:44.513Z,82.96
2023-02-05T13:53:06.935Z,82.77
2023-02-05T13:54:30.267Z,82.90
2023-02-05T13:56:15.308Z,81.02
2023-02-05T13:57:48.588Z,80.96
2023-02-05T13:58:55.086Z,80.35
2023-02-05T13:59:57.780Z,80.55
2023-02-05T14:01:03.399Z,80.58
2023-02-05T14:02:29.840Z,79.68
2023-02-05T14:03:37.277Z,79.49
2023-02-05T14:04:53.992Z,80.38
2023-02-05T14:05:59.858Z,80.89
2023-02-05T14:07:06.203Z,79.24
2023-02-05T14:08:21.958Z,79.99
2023-02-05T14:09:28.824Z,80.66
2023-02-05T14:10:33.562Z,80.65
2023-02-05T14:11:48.744Z,80.64
2023-02-05T14:12:50.479Z,81.23
2023-02-05T14:14:22.870Z,81.44
2023-02-05T14:15:37.996Z,80.96
2023-02-05T14:16:39.821Z,81.37
2023-02-05T14:17:56.565Z,80.92
2023-02-05T14:19:14.476Z,79.89
2023-02-05T14:20:38.976Z,80.92
2023-02-05T14:22:11.160Z,80.26
2023-02-05T14:23:15.275Z,80.89
2023-02-05T14:24:38.576Z,80.65
2023-02-05T14:26:11.181Z,79.62
2023-02-05T14:27:47.395Z,78.82
2023-02-05T14:28:52.688Z,78.32
2023-02-05T14:29:54.626Z,78.72
2023-02-05T14:30:59.084Z,79.63
2023-02-05T14:32:00.857Z,79.48
2023-02-05T14:33:05.366Z,79.27
2023-02-05T14:34:47.114Z,78.80
2023-02-05T14:35:50.140Z,77.79
2023-02-05T14:36:53.229Z,78.15
2023-02-05T14:38:01.243Z,78.07
2023-02-05T14:39:06.620Z,79.66
2023-02-05T14:40:28.868Z,79.40
2023-02-05T14:41:35.786Z,80.32